If you wish to contribute or participate in the discussions about articles you are invited to join SKYbrary as a registered user

 Actions

Aniak Airport

From SKYbrary Wiki

PANI
Airport
ICAO: PANI
Summary
Name Aniak Airport
Region North America
Territory Alaska US.gif
Location Aniak
Serving
Coordinates 61° 34' 53.0004", -159° 32' 34.0008"
Runways
Designator Length Width Surface ROPS
05W/23W 914 m2,998.688 ft 122 m400.262 ft WATER /
10/28 1829 m6,000.656 ft 46 m150.919 ft ASPH-F yes/yes
METAR
Observation PANI 112317Z AUTO 11007KT 4SM -SN BR SCT022 OVC031 M02/M03 A2924 RMK AO2 P0000 FZRANO
Station Aniak, Aniak Airport
Date/Time 11 December 2017 23:17:00
Wind direction 110°
Wind speed 07 kts
Lowest cloud amount scattered clouds
Temperature
Dew point
Humidity 92%
QNH hPa
Weather condition light

BS
Tag(s) Bird Strike
BS
Tag(s) Non Avian Wildlife Hazards to Aircraft
CFIT
Tag(s) Altimeter Temperature Error Correction

Aniak Airport

ICAO: PANI IATA: ANI

Description

Regional airport serving the town of Aniak, Alaska.

Climatology

Subarctic climate (Köppen climate classification Dfc) - long, usually very cold winters, and short, cool to mild summers.

Maps

Terrain

Loading map...

Airport Layout

Loading map...


Accidents & Serious Incidents at or in vicinity of PANI

None on SKYbrary